createdAt,value
2018-02-07T00:01:13.334Z,16.00
2018-02-07T00:03:40.798Z,17.55
2018-02-07T00:06:08.265Z,13.05
2018-02-07T00:08:35.753Z,15.77
2018-02-07T00:11:03.222Z,21.33
2018-02-07T00:13:30.708Z,15.02
2018-02-07T00:15:58.194Z,17.90
2018-02-07T00:18:25.681Z,17.65
2018-02-07T00:20:53.153Z,24.75
2018-02-07T00:23:20.636Z,14.40
2018-02-07T00:25:48.865Z,15.07
2018-02-07T00:28:17.133Z,16.48
2018-02-07T00:30:44.599Z,22.35
2018-02-07T00:33:12.093Z,14.82
2018-02-07T00:35:39.561Z,17.15
2018-02-07T00:38:07.134Z,13.40
2018-02-07T00:40:34.593Z,15.82
2018-02-07T00:43:02.049Z,14.83
2018-02-07T00:45:29.543Z,13.25
2018-02-07T00:47:57.793Z,12.00
2018-02-07T00:50:25.282Z,14.45
2018-02-07T00:52:52.749Z,18.08
2018-02-07T00:55:20.265Z,27.87
2018-02-07T00:57:47.745Z,19.45
2018-02-07T01:00:16.007Z,23.60
2018-02-07T01:02:43.493Z,19.62
2018-02-07T01:05:11.723Z,16.87
2018-02-07T01:07:39.199Z,18.15
2018-02-07T01:10:06.702Z,16.60
2018-02-07T01:12:34.186Z,13.50
2018-02-07T01:15:01.651Z,15.23
2018-02-07T01:17:29.140Z,14.43
2018-02-07T01:19:56.633Z,13.02
2018-02-07T01:22:24.097Z,20.00
2018-02-07T01:24:51.585Z,14.10
2018-02-07T01:27:19.053Z,15.00
2018-02-07T01:29:46.541Z,14.77
2018-02-07T01:32:14.798Z,14.75
2018-02-07T01:34:42.298Z,14.10
2018-02-07T01:37:09.794Z,12.30
2018-02-07T01:39:37.257Z,18.30
2018-02-07T01:42:04.758Z,20.35
2018-02-07T01:44:32.991Z,16.15
2018-02-07T01:47:00.453Z,12.57
2018-02-07T01:49:27.946Z,23.00
2018-02-07T01:51:55.467Z,21.98
2018-02-07T01:54:22.889Z,21.83
2018-02-07T01:56:50.378Z,18.50
2018-02-07T01:59:17.865Z,35.08
2018-02-07T02:01:45.325Z,14.00
2018-02-07T02:04:12.829Z,16.87
2018-02-07T02:06:40.307Z,17.40
2018-02-07T02:09:07.777Z,21.30
2018-02-07T02:11:35.269Z,22.03
2018-02-07T02:14:02.737Z,15.13
2018-02-07T02:16:30.226Z,19.95
2018-02-07T02:18:57.688Z,22.67
2018-02-07T02:21:25.183Z,16.50
2018-02-07T02:23:52.785Z,18.95
2018-02-07T02:26:20.266Z,17.45
2018-02-07T02:28:47.738Z,17.67
2018-02-07T02:31:15.249Z,20.50
2018-02-07T02:33:43.505Z,21.73
2018-02-07T02:36:22.895Z,19.98
2018-02-07T02:38:50.381Z,17.23
2018-02-07T02:41:17.845Z,19.20
2018-02-07T02:43:45.325Z,17.13
2018-02-07T02:46:12.797Z,19.77
2018-02-07T02:48:40.285Z,24.37
2018-02-07T02:51:07.778Z,16.25
2018-02-07T02:53:35.278Z,20.87
2018-02-07T02:56:03.537Z,17.50
2018-02-07T02:58:31.035Z,17.05
2018-02-07T03:00:58.506Z,23.67
2018-02-07T03:03:25.972Z,17.62
2018-02-07T03:05:53.469Z,22.42
2018-02-07T03:08:20.938Z,18.35
2018-02-07T03:10:48.452Z,16.80
2018-02-07T03:13:16.008Z,21.27
2018-02-07T03:15:43.503Z,18.00
2018-02-07T03:18:10.969Z,19.70
2018-02-07T03:20:38.457Z,21.58
2018-02-07T03:23:05.931Z,17.75
2018-02-07T03:25:33.410Z,23.50
2018-02-07T03:28:00.893Z,22.13
2018-02-07T03:30:28.390Z,20.60
2018-02-07T03:32:55.853Z,21.35
2018-02-07T03:35:23.324Z,19.30
2018-02-07T03:37:50.829Z,8.77
2018-02-07T03:40:18.301Z,26.67
2018-02-07T03:42:45.764Z,18.60
2018-02-07T03:45:13.248Z,19.12
2018-02-07T03:47:40.736Z,25.20
2018-02-07T03:50:08.202Z,16.80
2018-02-07T03:52:35.693Z,23.87
2018-02-07T03:55:03.954Z,19.33
2018-02-07T03:57:31.414Z,15.10
2018-02-07T03:59:58.889Z,19.55
2018-02-07T04:02:27.165Z,21.70
2018-02-07T04:04:55.416Z,23.25
2018-02-07T04:07:22.910Z,19.08
2018-02-07T04:09:51.150Z,18.70
2018-02-07T04:12:18.606Z,23.50
2018-02-07T04:14:46.090Z,22.58
2018-02-07T04:17:14.321Z,23.23
2018-02-07T04:19:42.583Z,22.52
2018-02-07T04:22:10.069Z,19.10
2018-02-07T04:24:37.529Z,18.83
2018-02-07T04:27:05.020Z,21.52
2018-02-07T04:29:33.313Z,18.87
2018-02-07T04:32:00.814Z,21.48
2018-02-07T04:34:28.509Z,21.02
2018-02-07T04:36:55.994Z,20.48
2018-02-07T04:39:23.468Z,24.35
2018-02-07T04:41:50.957Z,21.87
2018-02-07T04:44:18.679Z,17.52
2018-02-07T04:46:47.253Z,20.08
2018-02-07T04:49:14.717Z,21.20
2018-02-07T04:51:42.218Z,25.55
2018-02-07T04:54:09.684Z,16.35
2018-02-07T04:56:37.141Z,26.75
2018-02-07T04:59:04.679Z,16.02
2018-02-07T05:01:32.144Z,18.70
2018-02-07T05:03:59.614Z,19.62
2018-02-07T05:06:27.097Z,27.30
2018-02-07T05:08:54.559Z,19.05
2018-02-07T05:11:22.045Z,25.58
2018-02-07T05:13:50.301Z,24.93
2018-02-07T05:16:17.753Z,24.23
2018-02-07T05:18:45.240Z,33.03
2018-02-07T05:21:12.745Z,20.73
2018-02-07T05:23:40.208Z,23.02
2018-02-07T05:26:07.680Z,23.23
2018-02-07T05:28:35.191Z,23.42
2018-02-07T05:31:02.669Z,18.05
2018-02-07T05:33:30.154Z,22.10
2018-02-07T05:35:57.630Z,23.50
2018-02-07T05:38:25.305Z,30.83
2018-02-07T05:40:52.763Z,24.52
2018-02-07T05:43:21.023Z,28.70
2018-02-07T05:45:48.487Z,30.15
2018-02-07T05:48:15.989Z,32.17
2018-02-07T05:50:43.453Z,27.33
2018-02-07T05:53:10.921Z,25.80
2018-02-07T05:55:38.404Z,21.95
2018-02-07T05:58:05.869Z,29.80
2018-02-07T06:00:33.378Z,29.42
2018-02-07T06:03:00.853Z,26.87
2018-02-07T06:05:28.313Z,24.87
2018-02-07T06:07:55.801Z,28.98
2018-02-07T06:10:23.292Z,35.80
2018-02-07T06:12:50.763Z,22.08
2018-02-07T06:15:18.289Z,30.20
2018-02-07T06:17:46.552Z,25.95
2018-02-07T06:20:14.033Z,27.33
2018-02-07T06:22:42.265Z,24.35
2018-02-07T06:25:09.749Z,25.08
2018-02-07T06:27:37.267Z,26.50
2018-02-07T06:30:04.769Z,25.90
2018-02-07T06:32:32.744Z,28.65
2018-02-07T06:35:01.628Z,27.62
2018-02-07T06:37:29.493Z,26.65
2018-02-07T06:39:57.204Z,28.35
2018-02-07T06:42:24.729Z,26.50
2018-02-07T06:44:52.226Z,25.70
2018-02-07T06:47:19.713Z,27.42
2018-02-07T06:49:48.093Z,27.65
2018-02-07T06:52:15.565Z,22.52
2018-02-07T06:54:43.077Z,27.77
2018-02-07T06:57:10.562Z,27.23
2018-02-07T06:59:38.037Z,30.30
2018-02-07T07:02:05.536Z,28.70
2018-02-07T07:04:33.028Z,28.80
2018-02-07T07:07:00.532Z,23.65
2018-02-07T07:09:27.997Z,26.92
2018-02-07T07:11:55.461Z,29.33
2018-02-07T07:14:22.970Z,37.08
2018-02-07T07:16:50.457Z,25.88
2018-02-07T07:19:17.933Z,28.40
2018-02-07T07:21:46.201Z,28.90
2018-02-07T07:24:14.441Z,19.60
2018-02-07T07:26:41.933Z,27.40
2018-02-07T07:29:09.405Z,25.02
2018-02-07T07:31:37.666Z,28.52
2018-02-07T07:34:05.133Z,26.65
2018-02-07T07:36:33.366Z,39.38
2018-02-07T07:39:01.618Z,32.55
2018-02-07T07:41:29.201Z,28.52
2018-02-07T07:43:56.661Z,30.83
2018-02-07T07:46:24.153Z,31.98
2018-02-07T07:48:51.622Z,27.42
2018-02-07T07:51:19.081Z,31.25
2018-02-07T07:53:47.353Z,27.55
2018-02-07T07:56:14.809Z,35.75
2018-02-07T07:58:43.052Z,25.08
2018-02-07T08:01:10.533Z,28.98
2018-02-07T08:03:38.001Z,28.27
2018-02-07T08:06:05.491Z,39.13
2018-02-07T08:08:32.961Z,35.63
2018-02-07T08:11:00.512Z,24.77
2018-02-07T08:13:28.710Z,27.37
2018-02-07T08:15:56.205Z,31.10
2018-02-07T08:18:23.694Z,27.30
2018-02-07T08:20:51.201Z,23.15
2018-02-07T08:23:18.666Z,25.37
2018-02-07T08:25:46.152Z,24.10
2018-02-07T08:28:13.649Z,25.80
2018-02-07T08:30:41.108Z,28.10
2018-02-07T08:33:08.614Z,34.42
2018-02-07T08:35:36.082Z,18.73
2018-02-07T08:38:04.318Z,24.65
2018-02-07T08:40:32.561Z,28.55
2018-02-07T08:43:00.033Z,34.67
2018-02-07T08:45:27.531Z,26.85
2018-02-07T08:47:55.022Z,30.05
2018-02-07T08:50:23.286Z,27.25
2018-02-07T08:52:51.552Z,27.15
2018-02-07T08:55:19.035Z,26.92
2018-02-07T08:57:47.301Z,20.83
2018-02-07T09:00:15.661Z,20.17
2018-02-07T09:02:43.017Z,21.52
2018-02-07T09:05:10.520Z,27.92
2018-02-07T09:07:38.234Z,24.85
2018-02-07T09:10:05.706Z,23.92
2018-02-07T09:12:33.998Z,23.37
2018-02-07T09:15:01.470Z,23.12
2018-02-07T09:17:28.961Z,19.90
2018-02-07T09:19:56.432Z,24.10
2018-02-07T09:22:23.925Z,19.85
2018-02-07T09:24:52.182Z,26.50
2018-02-07T09:27:19.649Z,20.62
2018-02-07T09:29:47.146Z,24.52
2018-02-07T09:32:14.613Z,20.77
2018-02-07T09:34:42.113Z,24.48
2018-02-07T09:37:09.581Z,26.70
2018-02-07T09:39:37.425Z,18.80
2018-02-07T09:42:04.929Z,21.37
2018-02-07T09:44:32.423Z,26.67
2018-02-07T09:46:59.932Z,25.27
2018-02-07T09:49:27.393Z,21.67
2018-02-07T09:51:55.622Z,28.05
2018-02-07T09:54:23.117Z,22.52
2018-02-07T09:56:50.610Z,21.30
2018-02-07T09:59:18.118Z,24.45
2018-02-07T10:01:45.616Z,22.25
2018-02-07T10:04:13.106Z,18.48
2018-02-07T10:06:40.589Z,23.02
2018-02-07T10:09:08.142Z,18.35
2018-02-07T10:11:35.616Z,16.23
2018-02-07T10:14:03.100Z,26.37
2018-02-07T10:16:30.561Z,26.23
2018-02-07T10:18:58.046Z,17.43
2018-02-07T10:21:25.515Z,22.20
2018-02-07T10:23:53.006Z,17.10
2018-02-07T10:26:20.466Z,24.80
2018-02-07T10:28:47.946Z,22.63
2018-02-07T10:31:15.432Z,18.50
2018-02-07T10:33:42.909Z,13.85
2018-02-07T10:36:10.401Z,21.20
2018-02-07T10:38:38.024Z,17.37
2018-02-07T10:41:05.494Z,18.37
2018-02-07T10:43:32.978Z,24.33
2018-02-07T10:46:00.437Z,26.90
2018-02-07T10:48:27.926Z,17.73
2018-02-07T10:50:55.430Z,23.00
2018-02-07T10:53:22.896Z,22.30
2018-02-07T10:55:50.355Z,27.97
2018-02-07T10:58:17.839Z,19.83
2018-02-07T11:00:45.318Z,16.37
2018-02-07T11:03:13.735Z,20.73
2018-02-07T11:05:41.209Z,12.37
2018-02-07T11:08:09.574Z,13.00
2018-02-07T11:10:37.048Z,25.97
2018-02-07T11:13:04.528Z,13.40
2018-02-07T11:15:32.001Z,14.17
2018-02-07T11:17:59.457Z,14.73
2018-02-07T11:20:26.937Z,12.37
2018-02-07T11:22:55.181Z,23.17
2018-02-07T11:25:22.641Z,18.07
2018-02-07T11:27:50.137Z,16.70
2018-02-07T11:30:17.684Z,11.87
2018-02-07T11:32:45.905Z,16.17
2018-02-07T11:35:13.380Z,12.07
2018-02-07T11:37:40.860Z,14.20
2018-02-07T11:40:08.325Z,15.70
2018-02-07T11:42:36.573Z,14.37
2018-02-07T11:45:04.069Z,19.00
2018-02-07T11:47:32.368Z,14.70
2018-02-07T11:49:59.789Z,21.43
2018-02-07T11:52:27.254Z,20.20
2018-02-07T11:54:54.733Z,26.43
2018-02-07T11:57:22.197Z,15.07
2018-02-07T11:59:49.690Z,20.53
2018-02-07T12:02:17.147Z,21.47
2018-02-07T12:04:44.650Z,11.80
2018-02-07T12:07:12.118Z,15.53
2018-02-07T12:09:39.598Z,7.33
2018-02-07T12:12:07.045Z,16.90
2018-02-07T12:14:34.526Z,16.80
2018-02-07T12:17:01.985Z,18.80
2018-02-07T12:19:29.485Z,16.87
2018-02-07T12:21:56.940Z,16.73
2018-02-07T12:24:24.389Z,13.63
2018-02-07T12:26:51.893Z,16.00
2018-02-07T12:29:19.353Z,18.00
2018-02-07T12:31:46.837Z,15.70
2018-02-07T12:34:14.321Z,6.37
2018-02-07T12:36:41.817Z,18.00
2018-02-07T12:39:09.309Z,20.20
2018-02-07T12:41:36.765Z,14.30
2018-02-07T12:44:04.233Z,14.23
2018-02-07T12:46:31.689Z,14.27
2018-02-07T12:48:59.169Z,9.03
2018-02-07T12:51:27.415Z,5.80
2018-02-07T12:53:54.881Z,14.07
2018-02-07T12:56:22.381Z,12.53
2018-02-07T12:58:49.898Z,11.50
2018-02-07T13:01:17.353Z,16.63
2018-02-07T13:03:44.815Z,19.57
2018-02-07T13:06:13.134Z,13.90
2018-02-07T13:08:40.609Z,17.17
2018-02-07T13:11:08.858Z,21.60
2018-02-07T13:13:36.330Z,12.60
2018-02-07T13:16:03.809Z,13.27
2018-02-07T13:18:31.279Z,14.43
2018-02-07T13:20:58.733Z,20.17
2018-02-07T13:23:26.212Z,16.27
2018-02-07T13:25:53.685Z,15.73
2018-02-07T13:28:21.214Z,22.07
2018-02-07T13:30:48.717Z,5.13
2018-02-07T13:33:16.193Z,15.73
2018-02-07T13:35:43.645Z,15.90
2018-02-07T13:38:11.137Z,14.10
2018-02-07T13:40:38.622Z,18.00
2018-02-07T13:43:06.081Z,26.73
2018-02-07T13:45:33.559Z,15.03
2018-02-07T13:48:01.015Z,17.07
2018-02-07T13:50:28.496Z,13.17
2018-02-07T13:52:55.957Z,14.67
2018-02-07T13:55:23.441Z,14.97
2018-02-07T13:57:51.653Z,9.17
2018-02-07T14:00:19.138Z,13.80
2018-02-07T14:02:46.619Z,14.97
2018-02-07T14:05:14.107Z,11.97
2018-02-07T14:07:41.582Z,9.47
2018-02-07T14:10:09.138Z,12.30
2018-02-07T14:12:36.609Z,13.73
2018-02-07T14:15:04.061Z,17.00
2018-02-07T14:17:31.556Z,15.20
2018-02-07T14:19:59.041Z,12.87
2018-02-07T14:22:27.297Z,16.17
2018-02-07T14:24:54.757Z,16.97
2018-02-07T14:27:22.221Z,17.00
2018-02-07T14:29:49.703Z,14.70
2018-02-07T14:32:17.965Z,15.07
2018-02-07T14:34:46.218Z,14.60
2018-02-07T14:37:13.682Z,14.57
2018-02-07T14:39:41.173Z,14.43
2018-02-07T14:42:09.397Z,14.87
2018-02-07T14:44:36.870Z,16.27
2018-02-07T14:47:04.350Z,11.10
2018-02-07T14:49:32.634Z,12.43
2018-02-07T14:52:00.890Z,12.37
2018-02-07T14:54:28.349Z,11.40
2018-02-07T14:56:55.832Z,20.90
2018-02-07T14:59:24.073Z,15.43
2018-02-07T15:01:51.557Z,10.93
2018-02-07T15:04:19.832Z,12.20
2018-02-07T15:06:48.048Z,9.67
2018-02-07T15:09:15.521Z,13.50
2018-02-07T15:11:43.018Z,11.23
2018-02-07T15:14:10.510Z,13.20
2018-02-07T15:16:37.986Z,10.47
2018-02-07T15:19:05.446Z,9.37
2018-02-07T15:21:32.938Z,10.43
2018-02-07T15:24:00.397Z,11.20
2018-02-07T15:26:27.872Z,10.87
2018-02-07T15:28:55.362Z,12.03
2018-02-07T15:31:22.816Z,11.43
2018-02-07T15:33:50.285Z,10.90
2018-02-07T15:36:17.740Z,9.57
2018-02-07T15:38:45.404Z,9.20
2018-02-07T15:41:12.893Z,13.77
2018-02-07T15:43:40.524Z,17.13
2018-02-07T15:46:08.017Z,11.00
2018-02-07T15:48:35.525Z,13.13
2018-02-07T15:51:03.033Z,10.20
2018-02-07T15:53:30.492Z,13.53
2018-02-07T15:55:57.969Z,13.30
2018-02-07T15:58:25.434Z,15.17
2018-02-07T16:00:52.910Z,13.67
2018-02-07T16:03:20.377Z,17.73
2018-02-07T16:05:47.837Z,15.23
2018-02-07T16:08:15.317Z,11.87
2018-02-07T16:10:42.773Z,10.87
2018-02-07T16:13:10.261Z,11.83
2018-02-07T16:15:37.729Z,18.20
2018-02-07T16:18:05.214Z,20.30
2018-02-07T16:20:32.668Z,16.37
2018-02-07T16:23:00.161Z,14.33
2018-02-07T16:25:27.621Z,10.40
2018-02-07T16:27:55.109Z,11.50
2018-02-07T16:30:22.602Z,13.90
2018-02-07T16:32:50.826Z,15.40
2018-02-07T16:35:18.314Z,11.07
2018-02-07T16:37:45.793Z,11.10
2018-02-07T16:40:14.106Z,9.83
2018-02-07T16:42:41.610Z,11.00
2018-02-07T16:45:09.085Z,11.23
2018-02-07T16:47:36.555Z,10.80
2018-02-07T16:50:04.061Z,12.87
2018-02-07T16:52:31.521Z,19.13
2018-02-07T16:54:59.737Z,14.63
2018-02-07T16:57:27.213Z,13.70
2018-02-07T16:59:54.718Z,13.70
2018-02-07T17:02:22.177Z,14.50
2018-02-07T17:04:49.640Z,17.50
2018-02-07T17:07:17.130Z,16.60
2018-02-07T17:09:45.412Z,19.67
2018-02-07T17:12:13.641Z,13.93
2018-02-07T17:14:41.925Z,12.70
2018-02-07T17:17:09.385Z,12.93
2018-02-07T17:19:36.850Z,14.93
2018-02-07T17:22:04.337Z,17.20
2018-02-07T17:24:32.559Z,14.93
2018-02-07T17:27:00.041Z,19.33
2018-02-07T17:29:27.497Z,21.93
2018-02-07T17:31:55.802Z,17.23
2018-02-07T17:34:24.029Z,17.07
2018-02-07T17:36:51.546Z,19.00
2018-02-07T17:39:19.816Z,16.37
2018-02-07T17:41:48.082Z,16.33
2018-02-07T17:44:15.537Z,24.97
2018-02-07T17:46:42.994Z,18.90
2018-02-07T17:49:10.473Z,15.37
2018-02-07T17:51:38.689Z,67.57
2018-02-07T17:54:06.161Z,17.00
2018-02-07T17:56:33.621Z,21.30
2018-02-07T17:59:01.119Z,15.07
2018-02-07T18:01:29.344Z,16.33
2018-02-07T18:03:56.814Z,22.60
2018-02-07T18:06:24.293Z,18.00
2018-02-07T18:08:51.785Z,16.53
2018-02-07T18:11:19.270Z,18.33
2018-02-07T18:13:46.734Z,16.67
2018-02-07T18:16:14.189Z,27.03
2018-02-07T18:18:41.680Z,23.80
2018-02-07T18:21:09.140Z,28.80
2018-02-07T18:23:36.592Z,18.60
2018-02-07T18:26:04.076Z,18.40
2018-02-07T18:28:32.302Z,30.90
2018-02-07T18:30:59.800Z,26.37
2018-02-07T18:33:27.267Z,38.10
2018-02-07T18:35:56.615Z,27.43
2018-02-07T18:38:24.356Z,20.83
2018-02-07T18:40:51.809Z,16.90
2018-02-07T18:43:19.324Z,20.73
2018-02-07T18:45:46.782Z,24.97
2018-02-07T18:48:14.259Z,39.37
2018-02-07T18:50:41.744Z,27.90
2018-02-07T18:53:09.237Z,34.10
2018-02-07T18:55:37.489Z,29.10
2018-02-07T18:58:04.983Z,29.33
2018-02-07T19:00:32.446Z,27.97
2018-02-07T19:02:59.941Z,27.03
2018-02-07T19:05:28.170Z,28.90
2018-02-07T19:07:55.690Z,28.67
2018-02-07T19:10:23.141Z,37.03
2018-02-07T19:12:51.398Z,31.07
2018-02-07T19:15:18.860Z,32.03
2018-02-07T19:17:47.113Z,25.00
2018-02-07T19:20:14.579Z,44.70
2018-02-07T19:22:42.210Z,45.33
2018-02-07T19:25:09.811Z,43.77
2018-02-07T19:27:37.294Z,50.43
2018-02-07T19:30:04.857Z,47.10
2018-02-07T19:32:33.722Z,31.70
2018-02-07T19:35:01.194Z,27.40
2018-02-07T19:37:29.452Z,28.50
2018-02-07T19:39:56.914Z,43.80
2018-02-07T19:42:24.587Z,25.90
2018-02-07T19:44:52.844Z,28.33
2018-02-07T19:47:20.553Z,42.07
2018-02-07T19:49:48.125Z,35.87
2018-02-07T19:52:15.989Z,38.67
2018-02-07T19:54:43.521Z,38.33
2018-02-07T19:57:11.740Z,45.83
2018-02-07T19:59:39.275Z,46.00
2018-02-07T20:02:06.823Z,35.60
2018-02-07T20:04:34.301Z,32.87
2018-02-07T20:07:01.772Z,50.67
2018-02-07T20:09:29.266Z,55.13
2018-02-07T20:11:56.872Z,37.95
2018-02-07T20:14:24.504Z,32.97
2018-02-07T20:16:52.021Z,29.30
2018-02-07T20:19:19.484Z,33.80
2018-02-07T20:21:47.124Z,28.33
2018-02-07T20:24:14.708Z,30.80
2018-02-07T20:26:42.323Z,36.37
2018-02-07T20:29:10.096Z,25.33
2018-02-07T20:31:37.599Z,30.83
2018-02-07T20:34:05.867Z,30.50
2018-02-07T20:36:33.353Z,34.13
2018-02-07T20:39:00.854Z,31.97
2018-02-07T20:41:28.413Z,30.40
2018-02-07T20:43:56.051Z,28.00
2018-02-07T20:46:23.540Z,21.73
2018-02-07T20:48:51.225Z,21.00
2018-02-07T20:51:18.747Z,22.08
2018-02-07T20:53:46.292Z,18.97
2018-02-07T20:56:13.797Z,17.93
2018-02-07T20:58:41.485Z,15.30
2018-02-07T21:01:09.183Z,19.80
2018-02-07T21:03:37.466Z,22.70
2018-02-07T21:06:05.180Z,22.13
2018-02-07T21:08:32.644Z,29.10
2018-02-07T21:11:00.140Z,31.85
2018-02-07T21:13:27.631Z,26.37
2018-02-07T21:15:55.144Z,29.80
2018-02-07T21:18:22.766Z,27.03
2018-02-07T21:20:50.354Z,26.30
2018-02-07T21:23:18.760Z,20.67
2018-02-07T21:25:47.030Z,21.95
2018-02-07T21:28:14.765Z,19.62
2018-02-07T21:30:42.396Z,17.87
2018-02-07T21:33:09.880Z,22.97
2018-02-07T21:35:37.465Z,26.37
2018-02-07T21:38:04.976Z,24.73
2018-02-07T21:40:32.619Z,21.98
2018-02-07T21:43:00.150Z,29.33
2018-02-07T21:45:27.718Z,34.33
2018-02-07T21:47:56.034Z,27.90
2018-02-07T21:50:23.513Z,31.48
2018-02-07T21:52:51.017Z,28.83
2018-02-07T21:55:20.273Z,34.83
2018-02-07T21:57:48.548Z,25.30
2018-02-07T22:00:16.789Z,26.02
2018-02-07T22:02:45.023Z,34.00
2018-02-07T22:05:12.513Z,29.73
2018-02-07T22:07:40.791Z,31.12
2018-02-07T22:10:08.280Z,29.70
2018-02-07T22:12:35.761Z,36.90
2018-02-07T22:15:03.249Z,30.67
2018-02-07T22:17:30.717Z,29.45
2018-02-07T22:19:59.036Z,23.25
2018-02-07T22:22:26.509Z,27.00
2018-02-07T22:24:54.050Z,25.98
2018-02-07T22:27:21.533Z,25.60
2018-02-07T22:29:49.002Z,25.98
2018-02-07T22:32:16.497Z,26.12
2018-02-07T22:34:44.726Z,28.23
2018-02-07T22:37:12.206Z,23.98
2018-02-07T22:39:39.697Z,19.90
2018-02-07T22:42:07.917Z,25.87
2018-02-07T22:44:35.401Z,24.58
2018-02-07T22:47:02.889Z,29.35
2018-02-07T22:49:31.189Z,19.27
2018-02-07T22:51:58.674Z,19.62
2018-02-07T22:54:26.179Z,22.95
2018-02-07T22:56:54.406Z,19.15
2018-02-07T22:59:21.869Z,22.30
2018-02-07T23:01:49.362Z,24.90
2018-02-07T23:04:16.858Z,27.95
2018-02-07T23:06:44.325Z,25.95
2018-02-07T23:09:11.841Z,23.17
2018-02-07T23:11:40.101Z,21.20
2018-02-07T23:14:07.560Z,20.60
2018-02-07T23:16:35.066Z,23.38
2018-02-07T23:19:02.520Z,25.90
2018-02-07T23:21:29.984Z,25.15
2018-02-07T23:23:57.482Z,22.62
2018-02-07T23:26:24.961Z,26.10
2018-02-07T23:28:53.198Z,26.87
2018-02-07T23:31:20.685Z,22.42
2018-02-07T23:33:48.151Z,19.90
2018-02-07T23:36:15.638Z,22.25
2018-02-07T23:38:43.117Z,26.55
2018-02-07T23:41:10.589Z,18.77
2018-02-07T23:43:38.086Z,21.98
2018-02-07T23:46:05.541Z,26.65
2018-02-07T23:48:33.041Z,23.55
2018-02-07T23:51:00.530Z,25.58
2018-02-07T23:53:28.005Z,22.77
2018-02-07T23:55:55.477Z,24.12
2018-02-07T23:58:22.965Z,26.00
